This is the latest recevied weather packets stored in our database for station/object NK2J. If no packets are shown the sender has not sent any weather packets the latest 10 day(s).
| Time | Temp. | Humidity | Pressure | Rain* | Wind** | Luminosity | Snow |
|---|---|---|---|---|---|---|---|
| 1777852393 | 34.44° C | 17% | 1008.4 hPa | 0 mm | - | 286 W/m² | - |
| 1777852090 | 34.44° C | 19% | 1008.4 hPa | 0 mm | - | 309 W/m² | - |
| 1777851788 | 33.89° C | 17% | 1008.5 hPa | 0 mm | - | 332 W/m² | - |
| 1777851486 | 34.44° C | 18% | 1008.6 hPa | 0 mm | - | 353 W/m² | - |
| 1777851181 | 33.33° C | 18% | 1008.6 hPa | 0 mm | - | 109 W/m² | - |
| 1777850878 | 33.89° C | 19% | 1008.6 hPa | 0 mm | - | 401 W/m² | - |
| 1777850576 | 33.89° C | 18% | 1008.6 hPa | 0 mm | - | 177 W/m² | - |
| 1777850274 | 33.89° C | 18% | 1008.8 hPa | 0 mm | - | 93 W/m² | - |
| 1777849970 | 33.89° C | 19% | 1009 hPa | 0 mm | - | 417 W/m² | - |
| 1777849666 | 33.89° C | 18% | 1008.8 hPa | 0 mm | - | 90 W/m² | - |
| 1777849364 | 33.89° C | 19% | 1009.2 hPa | 0 mm | - | 409 W/m² | - |
| 1777849061 | 34.44° C | 19% | 1009.2 hPa | 0 mm | - | 424 W/m² | - |
| 1777848761 | 34.44° C | 18% | 1009.1 hPa | 0 mm | - | 438 W/m² | - |
| 1777848458 | 33.89° C | 18% | 1009.4 hPa | 0 mm | - | 457 W/m² | - |
| 1777848156 | 33.89° C | 20% | 1009.3 hPa | 0 mm | - | 472 W/m² | - |
| 1777847853 | 34.44° C | 20% | 1009.5 hPa | 0 mm | - | 484 W/m² | - |
| 1777847551 | 33.89° C | 18% | 1009.5 hPa | 0 mm | - | 494 W/m² | - |
| 1777847247 | 33.89° C | 20% | 1009.6 hPa | 0 mm | - | 508 W/m² | - |
| 1777846945 | 34.44° C | 19% | 1009.6 hPa | 0 mm | - | 524 W/m² | - |
| 1777846643 | 34.44° C | 19% | 1009.7 hPa | 0 mm | - | 551 W/m² | - |
| 1777846341 | 34.44° C | 18% | 1009.8 hPa | 0 mm | - | 562 W/m² | - |
| 1777846037 | 33.89° C | 21% | 1010 hPa | 0 mm | - | 555 W/m² | - |
| 1777845734 | 34.44° C | 19% | 1010 hPa | 0 mm | - | 571 W/m² | - |
| 1777845430 | 34.44° C | 19% | 1010 hPa | 0 mm | - | 585 W/m² | - |
| 1777845128 | 33.89° C | 20% | 1010.2 hPa | 0 mm | - | 597 W/m² | - |
* Rain latest hour (hover to see other rain measurements)
** Current wind speed in m/s (hover to see current wind gust speed)